Startpagina
METAR-TAF:

METAR-TAF

Vliegvelden :

Luchthaven Mariehamn

Mariehamn, Finland

breedte: 60-07N, lengte: 019-54E, hoogte: 6 m

Actueel weer

Dit bericht is 34 minuten geleden gemaakt, om 13:50 UTC
Wind 17 kt uit het noordoosten
Temperatuur 1°C
Vochtigheid 47%
Druk 992 hPa
Zicht 10 km of meer
geen wolken onder 1500 m en geen cumulonimbus

METAR: EFMA 261350Z AUTO 04017KT CAVOK 01/M09 Q0992

Tijdstip: 16:24 (14:24 UTC)

Verwachting

Dit bericht is 3 uur en het 0 minuten geleden gemaakt, om 11:24 UTC
Verwachting geldig van 26 om 12 UTC tot 26 om 21 UTC
Wind 15 kt uit het noordoosten
Zicht 10 km of meer
geen wolken onder 1500 m en geen cumulonimbus
Tijdelijke
van 26 om 12 UTC tot 26 om 21 UTC
Wind 18 kt uit het noordoosten met uitschieters tot 28 kt

TAF: EFMA 261124Z 2612/2621 05015KT CAVOK TEMPO 2612/2621 05018G28KT

Waarnemingen en weersverwachtingen van meer dan 4000 vliegvelden (METAR en TAF).

De beschikbare stations zijn de gele en rode punten op de kaart.

Ga met uw muis naar het station om de naam te zien.

Klik dan om waarnemingen en weersverwachtingen te zien.

kaart wijzigen: klik op de groene knoppen met een zwart kruis om in te zoomen, op de groene knop met een streepje om uit te zoomen of op de groene pijlen voor aangrenzende kaarten.


METAR-TAF: